Map

Track Data

SID SEASON NUMBER BASIN SUBBASIN NAME ISO_TIME NATURE LAT LON WMO_WIND WMO_PRES WMO_AGENCY TRACK_TYPE DIST2LAND LANDFALL IFLAG USA_AGENCY USA_ATCF_ID USA_LAT USA_LON USA_RECORD USA_STATUS USA_WIND USA_PRES USA_SSHS USA_R34_NE USA_R34_SE USA_R34_SW USA_R34_NW USA_R50_NE USA_R50_SE USA_R50_SW USA_R50_NW USA_R64_NE USA_R64_SE USA_R64_SW USA_R64_NW USA_POCI USA_ROCI USA_RMW USA_EYE TOKYO_LAT TOKYO_LON TOKYO_GRADE TOKYO_WIND TOKYO_PRES TOKYO_R50_DIR TOKYO_R50_LONG TOKYO_R50_SHORT TOKYO_R30_DIR TOKYO_R30_LONG TOKYO_R30_SHORT TOKYO_LAND CMA_LAT CMA_LON CMA_CAT CMA_WIND CMA_PRES HKO_LAT HKO_LON HKO_CAT HKO_WIND HKO_PRES NEWDELHI_LAT NEWDELHI_LON NEWDELHI_GRADE NEWDELHI_WIND NEWDELHI_PRES NEWDELHI_CI NEWDELHI_DP NEWDELHI_POCI REUNION_LAT REUNION_LON REUNION_TYPE REUNION_WIND REUNION_PRES REUNION_TNUM REUNION_CI REUNION_RMW REUNION_R34_NE REUNION_R34_SE REUNION_R34_SW REUNION_R34_NW REUNION_R50_NE REUNION_R50_SE REUNION_R50_SW REUNION_R50_NW REUNION_R64_NE REUNION_R64_SE REUNION_R64_SW REUNION_R64_NW BOM_LAT BOM_LON BOM_TYPE BOM_WIND BOM_PRES BOM_TNUM BOM_CI BOM_RMW BOM_R34_NE BOM_R34_SE BOM_R34_SW BOM_R34_NW BOM_R50_NE BOM_R50_SE BOM_R50_SW BOM_R50_NW BOM_R64_NE BOM_R64_SE BOM_R64_SW BOM_R64_NW BOM_ROCI BOM_POCI BOM_EYE BOM_POS_METHOD BOM_PRES_METHOD NADI_LAT NADI_LON NADI_CAT NADI_WIND NADI_PRES WELLINGTON_LAT WELLINGTON_LON WELLINGTON_WIND WELLINGTON_PRES DS824_LAT DS824_LON DS824_STAGE DS824_WIND DS824_PRES TD9636_LAT TD9636_LON TD9636_STAGE TD9636_WIND TD9636_PRES TD9635_LAT TD9635_LON TD9635_WIND TD9635_PRES TD9635_ROCI NEUMANN_LAT NEUMANN_LON NEUMANN_CLASS NEUMANN_WIND NEUMANN_PRES MLC_LAT MLC_LON MLC_CLASS MLC_WIND MLC_PRES USA_GUST BOM_GUST BOM_GUST_PER REUNION_GUST REUNION_GUST_PER USA_SEAHGT USA_SEARAD_NE USA_SEARAD_SE USA_SEARAD_SW USA_SEARAD_NW STORM_SPEED STORM_DIR
1875060S17082 1875 4 SI MM NOT_NAMED 1875-03-01 06:00:00 NR -16.8000 82.0000 main 2506 2506 _____O________ -1 -16.8000 82.0000 99 9.90000 0 0
1875060S17082 1875 4 SI MM NOT_NAMED 1875-03-01 09:00:00 NR -16.8041 81.9829 main 2506 2506 _____P________ -1 -16.8041 81.9829 99 0 250
1875060S17082 1875 4 SI MM NOT_NAMED 1875-03-01 12:00:00 NR -16.8137 81.9567 main 2506 2506 _____P________ -1 -16.8137 81.9567 99 1 247
1875060S17082 1875 4 SI MM NOT_NAMED 1875-03-01 15:00:00 NR -16.8346 81.9124 main 2514 2514 _____P________ -1 -16.8346 81.9124 99 1 242
1875060S17082 1875 4 SI MM NOT_NAMED 1875-03-01 18:00:00 NR -16.8721 81.8409 main 2530 2530 _____P________ -1 -16.8721 81.8409 99 2 241
1875060S17082 1875 4 SI MM NOT_NAMED 1875-03-01 21:00:00 NR -16.9319 81.7331 main 2538 2532 _____P________ -1 -16.9319 81.7331 99 3 240
1875060S17082 1875 4 SI MM NOT_NAMED 1875-03-02 00:00:00 NR -17.0196 81.5799 main 2532 2509 _____P________ -1 -17.0196 81.5799 99 4 239
1875060S17082 1875 4 SI MM NOT_NAMED 1875-03-02 03:00:00 NR -17.1404 81.3720 main 2509 2473 _____P________ -1 -17.1404 81.3720 99 5 238
1875060S17082 1875 4 SI MM NOT_NAMED 1875-03-02 06:00:00 NR -17.3000 81.1000 main 2473 2437 _____O________ -1 -17.3000 81.1000 99 9.90000 7 238
1875060S17082 1875 4 SI MM NOT_NAMED 1875-03-02 09:00:00 NR -17.5012 80.7584 main 2437 2391 _____P________ -1 -17.5012 80.7584 99 8 238
1875060S17082 1875 4 SI MM NOT_NAMED 1875-03-02 12:00:00 NR -17.7374 80.3573 main 2391 2333 _____P________ -1 -17.7374 80.3573 99 10 238
1875060S17082 1875 4 SI MM NOT_NAMED 1875-03-02 15:00:00 NR -17.9998 79.9107 main 2333 2286 _____P________ -1 -17.9998 79.9107 99 10 238
1875060S17082 1875 4 SI MM NOT_NAMED 1875-03-02 18:00:00 NR -18.2795 79.4329 main 2276 2229 _____P________ -1 -18.2795 79.4329 99 11 238
1875060S17082 1875 4 SI MM NOT_NAMED 1875-03-02 21:00:00 NR -18.5679 78.9382 main 2218 2174 _____P________ -1 -18.5679 78.9382 99 11 238
1875060S17082 1875 4 SI MM NOT_NAMED 1875-03-03 00:00:00 NR -18.8564 78.4413 main 2162 2117 _____P________ -1 -18.8564 78.4413 99 11 239
1875060S17082 1875 4 SI MM NOT_NAMED 1875-03-03 03:00:00 NR -19.1365 77.9570 main 2117 2061 _____P________ -1 -19.1365 77.9570 99 10 239
1875060S17082 1875 4 SI MM NOT_NAMED 1875-03-03 06:00:00 NR -19.4000 77.5000 reunion main 2061 2017 _____O________ -1 -19.4000 77.5000 99 9.90000 10 239
1875060S17082 1875 4 SI MM NOT_NAMED 1875-03-03 09:00:00 NR -19.6300 77.0974 main 2017 1973 _____P________ -1 -19.6300 77.0974 99 9 239
1875060S17082 1875 4 SI MM NOT_NAMED 1875-03-03 12:00:00 NR -19.8496 76.7125 main 1973 1940 _____P________ -1 -19.8496 76.7125 99 8 239
1875060S17082 1875 4 SI MM NOT_NAMED 1875-03-03 15:00:00 NR -20.0579 76.3475 main 1929 1897 _____P________ -1 -20.0579 76.3475 99 8 239
1875060S17082 1875 4 SI MM NOT_NAMED 1875-03-03 18:00:00 NR -20.2540 76.0046 main 1896 1865 _____P________ -1 -20.2540 76.0046 99 7 239
1875060S17082 1875 4 SI MM NOT_NAMED 1875-03-03 21:00:00 NR -20.4371 75.6861 main 1865 1832 _____P________ -1 -20.4371 75.6861 99 7 238
1875060S17082 1875 4 SI MM NOT_NAMED 1875-03-04 00:00:00 NR -20.6064 75.3943 main 1832 1801 _____P________ -1 -20.6064 75.3943 99 6 238
1875060S17082 1875 4 SI MM NOT_NAMED 1875-03-04 03:00:00 NR -20.7610 75.1315 main 1801 1780 _____P________ -1 -20.7610 75.1315 99 5 238
1875060S17082 1875 4 SI MM NOT_NAMED 1875-03-04 06:00:00 NR -20.9000 74.9000 reunion main 1780 1759 _____O________ -1 -20.9000 74.9000 99 9.90000 5 237
1875060S17082 1875 4 SI MM NOT_NAMED 1875-03-04 09:00:00 NR -21.0231 74.7011 main 1759 1738 _____P________ -1 -21.0231 74.7011 99 4 236
1875060S17082 1875 4 SI MM NOT_NAMED 1875-03-04 12:00:00 NR -21.1319 74.5316 main 1738 1727 _____P________ -1 -21.1319 74.5316 99 4 235
1875060S17082 1875 4 SI MM NOT_NAMED 1875-03-04 15:00:00 NR -21.2285 74.3875 main 1727 1717 _____P________ -1 -21.2285 74.3875 99 3 234
1875060S17082 1875 4 SI MM NOT_NAMED 1875-03-04 18:00:00 NR -21.3149 74.2646 main 1717 1707 _____P________ -1 -21.3149 74.2646 99 3 232
1875060S17082 1875 4 SI MM NOT_NAMED 1875-03-04 21:00:00 NR -21.3932 74.1586 main 1707 1697 _____P________ -1 -21.3932 74.1586 99 2 231
1875060S17082 1875 4 SI MM NOT_NAMED 1875-03-05 00:00:00 NR -21.4655 74.0654 main 1697 1687 _____P________ -1 -21.4655 74.0654 99 2 230
1875060S17082 1875 4 SI MM NOT_NAMED 1875-03-05 03:00:00 NR -21.5338 73.9806 main 1687 1677 _____P________ -1 -21.5338 73.9806 99 2 229
1875060S17082 1875 4 SI MM NOT_NAMED 1875-03-05 06:00:00 NR -21.6000 73.9000 reunion main 1677 _____O________ -1 -21.6000 73.9000 99 9.90000 2 231

About IBTrACS Database

This database is a web-friendly format of International Best Track Archive for Climate Stewardship (IBTrACS), a global best track data archive curated by NOAA dating back to 1842.

Updated: 2021-12-03